Terminal Aerodrome Forecast
Issued by NWS Wilmington, OH

Current Version | Previous Version | Graphics & Text | Print | Product List | Glossary On
Versions: 1 2 3 4 5 6 7 8 9 10 11 12 13 14 15 16 17 18 19 20 21 22 23 24 25
000
FTUS41 KILN 302100 AAB
TAFCMH
TAF AMD
KCMH 302113Z 3021/3118 21014KT P6SM VCTS BKN040CB
      TEMPO 3021/3022 24015G30KT 2SM -TSRA OVC025CB
     FM302200 21014KT P6SM VCTS BKN040CB
      TEMPO 3022/3024 4SM -TSRA OVC025CB
     FM310100 19008KT P6SM SCT050
     FM310800 18008KT P6SM VCSH BKN050
     FM311500 20010KT P6SM VCSH OVC025=

USA.gov is the U.S. government's official web portal to all federal, state and local government web resources and services.